Amarillo, TX (79166)

7:42 PM CDT on August 27, 2015 (GMT -0500)
Plemons-Eakle | | Change Station
CLOSE
Current Station
Personal Weather Station
Location: Amarillo, TX
Elevation: 3678 ft
Nearby Weather Stations

Elev 3678 ft 35.19 °N, 101.84 °W | Updated 18 seconds ago

Partly Cloudy
Partly Cloudy
83.0 °F
Feels Like 83 °F
N
1.1
Wind Variable Wind from SSW
Gusts 3.5 mph

Today
High -- | Low -- °F
--% Chance of Precip.
Yesterday
High -- | Low -- °F
Precip. -- in
7:15 AM 8:21 PM
Waxing Gibbous, 95% visible
Pressure 29.86 in
Visibility 10.0 miles
Clouds Clear
Heat Index 83 °F
Dew Point 58 °F
Humidity 42%
Rainfall 0.00 in
Snow Depth Not available.
UV 1 out of 12
Pollen 8.90 out of 12
Air Quality Not available.
Flu Activity Not available.
METAR KAMA 272353Z 18013KT 10SM CLR 30/13 A3002 RMK AO2 SLP111 60000 T03000128 10328 20256 58014
Pressure 29.86 in
Visibility 10.0 miles
Clouds Clear
Heat Index 83 °F
Dew Point 58 °F
Humidity 42%
Rainfall 0.00 in
Snow Depth Not available.
UV 1 out of 12
Pollen 8.90 out of 12
Air Quality Not available.
Flu Activity Not available.
METAR KAMA 272353Z 18013KT 10SM CLR 30/13 A3002 RMK AO2 SLP111 60000 T03000128 10328 20256 58014

10-Day Weather Forecast

×

Almanac

Astronomy

Aug. 27, 2015 Rise Set
Actual Time
Civil Twilight
Nautical Twilight
Astronomical Twilight
Moon
Length of Visible Light
Length of Day
Tomorrow will be .
, % of the Moon is Illuminated

Today's Extremes

State Highs State Lows

Community

WunderPhotos

Upload Photos

1,850,275 photos uploaded!

WunderBlogs® & News

Nearby

Air Quality

  Air Quality AQ Index Pollutant
Not available.

Snow Depth

Station Depth Elevation

Earthquake Activity

City Distance Mag. Time & Date
Minimum magnitude displayed is 2.5.

Coastal Water Temperatures

Place Temperature

Stations

Nearby Weather Stations

Station Location Temp. Windchill Dew Point Humidity Wind Precip. Elev Updated Type